<?xml version="1.0" encoding="UTF-8" standalone="no" ?><gpx xmlns="http://www.topografix.com/GPX/1/1" xmlns:gpxx="http://www.garmin.com/xmlschemas/GpxExtensions/v3" xmlns:wptx1="http://www.garmin.com/xmlschemas/WaypointExtension/v1" xmlns:gpxtpx="http://www.garmin.com/xmlschemas/TrackPointExtension/v1" creator="Dakota 20" version="1.1" xmlns:xsi="http://www.w3.org/2001/XMLSchema-instance" xsi:schemaLocation="http://www.topografix.com/GPX/1/1 http://www.topografix.com/GPX/1/1/gpx.xsd http://www.garmin.com/xmlschemas/GpxExtensions/v3 http://www8.garmin.com/xmlschemas/GpxExtensionsv3.xsd http://www.garmin.com/xmlschemas/WaypointExtension/v1 http://www8.garmin.com/xmlschemas/WaypointExtensionv1.xsd http://www.garmin.com/xmlschemas/TrackPointExtension/v1 http://www.garmin.com/xmlschemas/TrackPointExtensionv1.xsd"><metadata><link href="http://www.garmin.com"><text>Garmin International</text></link><time>2015-04-29T17:53:15Z</time></metadata><trk><name>Current Track: 29 APR 2015 09:56</name><extensions><gpxx:TrackExtension><gpxx:DisplayColor>Cyan</gpxx:DisplayColor></gpxx:TrackExtension></extensions><trkseg><trkpt lat="51.8262599967" lon="-2.0473139640"><ele>180.38</ele><time>2015-04-29T08:56:16Z</time></trkpt><trkpt lat="51.8262700550" lon="-2.0473507605"><ele>178.94</ele><time>2015-04-29T08:56:30Z</time></trkpt><trkpt lat="51.8263767567" lon="-2.0475367550"><ele>178.46</ele><time>2015-04-29T08:56:49Z</time></trkpt><trkpt lat="51.8264328316" lon="-2.0475293789"><ele>177.02</ele><time>2015-04-29T08:56:53Z</time></trkpt><trkpt lat="51.8265180755" lon="-2.0477911457"><ele>175.10</ele><time>2015-04-29T08:57:09Z</time></trkpt><trkpt lat="51.8265372701" lon="-2.0479638129"><ele>174.14</ele><time>2015-04-29T08:57:17Z</time></trkpt><trkpt lat="51.8266948499" lon="-2.0483414177"><ele>173.17</ele><time>2015-04-29T08:57:38Z</time></trkpt><trkpt lat="51.8268030602" lon="-2.0486130752"><ele>176.54</ele><time>2015-04-29T08:57:56Z</time></trkpt><trkpt lat="51.8268814310" lon="-2.0488545578"><ele>178.94</ele><time>2015-04-29T08:58:17Z</time></trkpt><trkpt lat="51.8269427028" lon="-2.0491167437"><ele>179.42</ele><time>2015-04-29T08:58:36Z</time></trkpt><trkpt lat="51.8269671779" lon="-2.0493371878"><ele>181.35</ele><time>2015-04-29T08:58:55Z</time></trkpt><trkpt lat="51.8271382526" lon="-2.0495839510"><ele>182.79</ele><time>2015-04-29T08:59:17Z</time></trkpt><trkpt lat="51.8273053877" lon="-2.0498556923"><ele>183.75</ele><time>2015-04-29T08:59:37Z</time></trkpt><trkpt lat="51.8273662403" lon="-2.0499140304"><ele>184.23</ele><time>2015-04-29T08:59:53Z</time></trkpt><trkpt lat="51.8274035398" lon="-2.0500861946"><ele>184.23</ele><time>2015-04-29T09:00:10Z</time></trkpt><trkpt lat="51.8274401687" lon="-2.0501657389"><ele>183.75</ele><time>2015-04-29T09:00:15Z</time></trkpt><trkpt lat="51.8276156858" lon="-2.0505181141"><ele>185.67</ele><time>2015-04-29T09:00:40Z</time></trkpt><trkpt lat="51.8277123291" lon="-2.0507491194"><ele>185.67</ele><time>2015-04-29T09:00:57Z</time></trkpt><trkpt lat="51.8278146721" lon="-2.0510625187"><ele>185.67</ele><time>2015-04-29T09:01:16Z</time></trkpt><trkpt lat="51.8279511295" lon="-2.0513562206"><ele>186.63</ele><time>2015-04-29T09:01:37Z</time></trkpt><trkpt lat="51.8279863335" lon="-2.0514039136"><ele>186.63</ele><time>2015-04-29T09:01:42Z</time></trkpt><trkpt lat="51.8280818034" lon="-2.0516806841"><ele>187.11</ele><time>2015-04-29T09:02:04Z</time></trkpt><trkpt lat="51.8281555641" lon="-2.0518189017"><ele>187.59</ele><time>2015-04-29T09:02:16Z</time></trkpt><trkpt lat="51.8282601703" lon="-2.0521218237"><ele>188.08</ele><time>2015-04-29T09:02:38Z</time></trkpt><trkpt lat="51.8282857351" lon="-2.0521932375"><ele>188.56</ele><time>2015-04-29T09:02:55Z</time></trkpt><trkpt lat="51.8284185044" lon="-2.0524503104"><ele>189.04</ele><time>2015-04-29T09:03:15Z</time></trkpt><trkpt lat="51.8285194226" lon="-2.0528898574"><ele>189.04</ele><time>2015-04-29T09:03:41Z</time></trkpt><trkpt lat="51.8286458217" lon="-2.0532110520"><ele>189.52</ele><time>2015-04-29T09:04:05Z</time></trkpt><trkpt lat="51.8287578039" lon="-2.0535744913"><ele>190.00</ele><time>2015-04-29T09:04:31Z</time></trkpt><trkpt lat="51.8288350850" lon="-2.0539202448"><ele>192.88</ele><time>2015-04-29T09:04:55Z</time></trkpt><trkpt lat="51.8289421219" lon="-2.0541990269"><ele>194.32</ele><time>2015-04-29T09:05:15Z</time></trkpt><trkpt lat="51.8291252665" lon="-2.0544441976"><ele>195.28</ele><time>2015-04-29T09:05:40Z</time></trkpt><trkpt lat="51.8293174636" lon="-2.0544690080"><ele>195.28</ele><time>2015-04-29T09:06:03Z</time></trkpt><trkpt lat="51.8295371532" lon="-2.0543965045"><ele>194.80</ele><time>2015-04-29T09:06:25Z</time></trkpt><trkpt lat="51.8297582678" lon="-2.0542710274"><ele>192.88</ele><time>2015-04-29T09:06:50Z</time></trkpt><trkpt lat="51.8299084716" lon="-2.0541935787"><ele>191.44</ele><time>2015-04-29T09:07:09Z</time></trkpt><trkpt lat="51.8300342839" lon="-2.0540874638"><ele>190.00</ele><time>2015-04-29T09:07:31Z</time></trkpt><trkpt lat="51.8302227929" lon="-2.0539817680"><ele>188.08</ele><time>2015-04-29T09:07:55Z</time></trkpt><trkpt lat="51.8304674607" lon="-2.0538627449"><ele>187.59</ele><time>2015-04-29T09:08:14Z</time></trkpt><trkpt lat="51.8305690493" lon="-2.0538070891"><ele>187.59</ele><time>2015-04-29T09:08:33Z</time></trkpt><trkpt lat="51.8306933530" lon="-2.0536632556"><ele>188.08</ele><time>2015-04-29T09:08:56Z</time></trkpt><trkpt lat="51.8308122922" lon="-2.0534713101"><ele>189.04</ele><time>2015-04-29T09:09:15Z</time></trkpt><trkpt lat="51.8308488373" lon="-2.0531778596"><ele>189.52</ele><time>2015-04-29T09:09:35Z</time></trkpt><trkpt lat="51.8310390227" lon="-2.0530005824"><ele>189.52</ele><time>2015-04-29T09:09:57Z</time></trkpt><trkpt lat="51.8311272003" lon="-2.0529791247"><ele>189.52</ele><time>2015-04-29T09:10:06Z</time></trkpt><trkpt lat="51.8314267695" lon="-2.0527824853"><ele>189.52</ele><time>2015-04-29T09:10:31Z</time></trkpt><trkpt lat="51.8316318747" lon="-2.0526815671"><ele>190.00</ele><time>2015-04-29T09:10:53Z</time></trkpt><trkpt lat="51.8316548411" lon="-2.0525385719"><ele>190.48</ele><time>2015-04-29T09:11:15Z</time></trkpt><trkpt lat="51.8316891231" lon="-2.0524451137"><ele>190.48</ele><time>2015-04-29T09:11:32Z</time></trkpt><trkpt lat="51.8317483831" lon="-2.0520359091"><ele>188.56</ele><time>2015-04-29T09:11:54Z</time></trkpt><trkpt lat="51.8317850959" lon="-2.0518508367"><ele>186.63</ele><time>2015-04-29T09:12:11Z</time></trkpt><trkpt lat="51.8318580184" lon="-2.0515819453"><ele>184.71</ele><time>2015-04-29T09:12:30Z</time></trkpt><trkpt lat="51.8319353834" lon="-2.0514378604"><ele>184.23</ele><time>2015-04-29T09:12:50Z</time></trkpt><trkpt lat="51.8320097309" lon="-2.0514355134"><ele>182.31</ele><time>2015-04-29T09:13:14Z</time></trkpt><trkpt lat="51.8321867567" lon="-2.0513798576"><ele>179.90</ele><time>2015-04-29T09:13:34Z</time></trkpt><trkpt lat="51.8322321866" lon="-2.0513167419"><ele>178.94</ele><time>2015-04-29T09:13:53Z</time></trkpt><trkpt lat="51.8322715815" lon="-2.0513077732"><ele>178.94</ele><time>2015-04-29T09:14:11Z</time></trkpt><trkpt lat="51.8322803825" lon="-2.0512972120"><ele>178.94</ele><time>2015-04-29T09:14:36Z</time></trkpt><trkpt lat="51.8320922088" lon="-2.0512849744"><ele>180.38</ele><time>2015-04-29T09:14:53Z</time></trkpt><trkpt lat="51.8319774605" lon="-2.0514600724"><ele>182.31</ele><time>2015-04-29T09:15:13Z</time></trkpt><trkpt lat="51.8318551686" lon="-2.0516163111"><ele>184.71</ele><time>2015-04-29T09:15:33Z</time></trkpt><trkpt lat="51.8317610398" lon="-2.0518712886"><ele>188.08</ele><time>2015-04-29T09:15:54Z</time></trkpt><trkpt lat="51.8317622133" lon="-2.0521291159"><ele>188.56</ele><time>2015-04-29T09:16:11Z</time></trkpt><trkpt lat="51.8317015283" lon="-2.0522394218"><ele>190.48</ele><time>2015-04-29T09:16:30Z</time></trkpt><trkpt lat="51.8317168672" lon="-2.0522250049"><ele>189.52</ele><time>2015-04-29T09:16:50Z</time></trkpt><trkpt lat="51.8317085691" lon="-2.0522457082"><ele>190.00</ele><time>2015-04-29T09:16:51Z</time></trkpt><trkpt lat="51.8316778075" lon="-2.0525580179"><ele>190.96</ele><time>2015-04-29T09:17:11Z</time></trkpt><trkpt lat="51.8315427750" lon="-2.0526648872"><ele>191.92</ele><time>2015-04-29T09:17:24Z</time></trkpt><trkpt lat="51.8313889671" lon="-2.0527670626"><ele>190.00</ele><time>2015-04-29T09:17:39Z</time></trkpt><trkpt lat="51.8313540146" lon="-2.0527953096"><ele>190.48</ele><time>2015-04-29T09:17:45Z</time></trkpt><trkpt lat="51.8313126080" lon="-2.0528227184"><ele>190.00</ele><time>2015-04-29T09:17:50Z</time></trkpt><trkpt lat="51.8312664237" lon="-2.0528354589"><ele>190.48</ele><time>2015-04-29T09:17:55Z</time></trkpt><trkpt lat="51.8312418647" lon="-2.0528524742"><ele>190.96</ele><time>2015-04-29T09:17:58Z</time></trkpt><trkpt lat="51.8311765697" lon="-2.0528843254"><ele>190.48</ele><time>2015-04-29T09:18:05Z</time></trkpt><trkpt lat="51.8310574628" lon="-2.0529516321"><ele>190.48</ele><time>2015-04-29T09:18:21Z</time></trkpt><trkpt lat="51.8309505098" lon="-2.0530223753"><ele>190.48</ele><time>2015-04-29T09:18:34Z</time></trkpt><trkpt lat="51.8308516033" lon="-2.0530948788"><ele>190.48</ele><time>2015-04-29T09:18:45Z</time></trkpt><trkpt lat="51.8307968695" lon="-2.0532966312"><ele>190.00</ele><time>2015-04-29T09:18:58Z</time></trkpt><trkpt lat="51.8308019824" lon="-2.0533180889"><ele>190.00</ele><time>2015-04-29T09:18:59Z</time></trkpt><trkpt lat="51.8308157288" lon="-2.0538150519"><ele>190.00</ele><time>2015-04-29T09:19:20Z</time></trkpt><trkpt lat="51.8308408745" lon="-2.0539299678"><ele>190.00</ele><time>2015-04-29T09:19:28Z</time></trkpt><trkpt lat="51.8308781739" lon="-2.0541984402"><ele>189.52</ele><time>2015-04-29T09:19:45Z</time></trkpt><trkpt lat="51.8308935966" lon="-2.0542597957"><ele>190.00</ele><time>2015-04-29T09:19:49Z</time></trkpt><trkpt lat="51.8309456483" lon="-2.0545570180"><ele>189.52</ele><time>2015-04-29T09:20:07Z</time></trkpt><trkpt lat="51.8310183194" lon="-2.0548026077"><ele>190.00</ele><time>2015-04-29T09:20:24Z</time></trkpt><trkpt lat="51.8310878053" lon="-2.0549331978"><ele>190.96</ele><time>2015-04-29T09:20:36Z</time></trkpt><trkpt lat="51.8311422877" lon="-2.0551903546"><ele>192.40</ele><time>2015-04-29T09:20:53Z</time></trkpt><trkpt lat="51.8311908189" lon="-2.0554309990"><ele>193.36</ele><time>2015-04-29T09:21:09Z</time></trkpt><trkpt lat="51.8311969377" lon="-2.0554618444"><ele>194.32</ele><time>2015-04-29T09:21:26Z</time></trkpt><trkpt lat="51.8312184792" lon="-2.0555138122"><ele>194.32</ele><time>2015-04-29T09:21:48Z</time></trkpt><trkpt lat="51.8313085008" lon="-2.0554965455"><ele>196.25</ele><time>2015-04-29T09:22:01Z</time></trkpt><trkpt lat="51.8313364964" lon="-2.0553245489"><ele>197.69</ele><time>2015-04-29T09:22:16Z</time></trkpt><trkpt lat="51.8313546851" lon="-2.0552071184"><ele>198.65</ele><time>2015-04-29T09:22:24Z</time></trkpt><trkpt lat="51.8313932419" lon="-2.0550980698"><ele>200.09</ele><time>2015-04-29T09:22:41Z</time></trkpt><trkpt lat="51.8315054756" lon="-2.0549417473"><ele>201.53</ele><time>2015-04-29T09:22:56Z</time></trkpt><trkpt lat="51.8315435294" lon="-2.0548974071"><ele>202.49</ele><time>2015-04-29T09:23:08Z</time></trkpt><trkpt lat="51.8316831719" lon="-2.0548571739"><ele>203.94</ele><time>2015-04-29T09:23:24Z</time></trkpt><trkpt lat="51.8317435216" lon="-2.0548202936"><ele>203.94</ele><time>2015-04-29T09:23:32Z</time></trkpt><trkpt lat="51.8319306057" lon="-2.0547824074"><ele>205.86</ele><time>2015-04-29T09:23:51Z</time></trkpt><trkpt lat="51.8320794683" lon="-2.0546953194"><ele>207.78</ele><time>2015-04-29T09:24:07Z</time></trkpt><trkpt lat="51.8322756048" lon="-2.0546063036"><ele>207.78</ele><time>2015-04-29T09:24:26Z</time></trkpt><trkpt lat="51.8324572407" lon="-2.0545293577"><ele>207.78</ele><time>2015-04-29T09:24:46Z</time></trkpt><trkpt lat="51.8326156586" lon="-2.0545004401"><ele>207.78</ele><time>2015-04-29T09:25:05Z</time></trkpt><trkpt lat="51.8327665329" lon="-2.0544749591"><ele>206.82</ele><time>2015-04-29T09:25:25Z</time></trkpt><trkpt lat="51.8330039084" lon="-2.0544347260"><ele>205.38</ele><time>2015-04-29T09:25:44Z</time></trkpt><trkpt lat="51.8332267832" lon="-2.0544312056"><ele>204.90</ele><time>2015-04-29T09:26:05Z</time></trkpt><trkpt lat="51.8333828542" lon="-2.0544127654"><ele>203.46</ele><time>2015-04-29T09:26:25Z</time></trkpt><trkpt lat="51.8334720377" lon="-2.0544196386"><ele>203.46</ele><time>2015-04-29T09:26:44Z</time></trkpt><trkpt lat="51.8336721137" lon="-2.0544457063"><ele>202.49</ele><time>2015-04-29T09:27:02Z</time></trkpt><trkpt lat="51.8337990157" lon="-2.0544779766"><ele>202.98</ele><time>2015-04-29T09:27:23Z</time></trkpt><trkpt lat="51.8337661587" lon="-2.0544521604"><ele>202.49</ele><time>2015-04-29T09:27:30Z</time></trkpt><trkpt lat="51.8340027798" lon="-2.0545227360"><ele>203.46</ele><time>2015-04-29T09:27:52Z</time></trkpt><trkpt lat="51.8343440909" lon="-2.0546151884"><ele>202.49</ele><time>2015-04-29T09:28:10Z</time></trkpt><trkpt lat="51.8346351944" lon="-2.0547223929"><ele>202.49</ele><time>2015-04-29T09:28:29Z</time></trkpt><trkpt lat="51.8348579854" lon="-2.0548511390"><ele>202.98</ele><time>2015-04-29T09:28:51Z</time></trkpt><trkpt lat="51.8350492604" lon="-2.0549528114"><ele>202.98</ele><time>2015-04-29T09:29:13Z</time></trkpt><trkpt lat="51.8352661841" lon="-2.0550871734"><ele>203.46</ele><time>2015-04-29T09:29:35Z</time></trkpt><trkpt lat="51.8354490772" lon="-2.0551818889"><ele>203.46</ele><time>2015-04-29T09:29:57Z</time></trkpt><trkpt lat="51.8355925754" lon="-2.0552526321"><ele>203.46</ele><time>2015-04-29T09:30:15Z</time></trkpt><trkpt lat="51.8358315434" lon="-2.0554097928"><ele>202.01</ele><time>2015-04-29T09:30:36Z</time></trkpt><trkpt lat="51.8360039592" lon="-2.0555254631"><ele>200.57</ele><time>2015-04-29T09:30:55Z</time></trkpt><trkpt lat="51.8361451104" lon="-2.0557542890"><ele>198.65</ele><time>2015-04-29T09:31:16Z</time></trkpt><trkpt lat="51.8362456933" lon="-2.0559257828"><ele>196.73</ele><time>2015-04-29T09:31:34Z</time></trkpt><trkpt lat="51.8363676500" lon="-2.0561027247"><ele>194.32</ele><time>2015-04-29T09:31:53Z</time></trkpt><trkpt lat="51.8363768701" lon="-2.0561145432"><ele>193.84</ele><time>2015-04-29T09:31:54Z</time></trkpt><trkpt lat="51.8364937976" lon="-2.0563221630"><ele>191.44</ele><time>2015-04-29T09:32:13Z</time></trkpt><trkpt lat="51.8366051093" lon="-2.0564907230"><ele>190.00</ele><time>2015-04-29T09:32:29Z</time></trkpt><trkpt lat="51.8367024232" lon="-2.0566109195"><ele>189.04</ele><time>2015-04-29T09:32:44Z</time></trkpt><trkpt lat="51.8367676344" lon="-2.0567048807"><ele>188.56</ele><time>2015-04-29T09:32:58Z</time></trkpt><trkpt lat="51.8367990665" lon="-2.0567659847"><ele>189.04</ele><time>2015-04-29T09:33:02Z</time></trkpt><trkpt lat="51.8369414750" lon="-2.0569328684"><ele>190.00</ele><time>2015-04-29T09:33:19Z</time></trkpt><trkpt lat="51.8370106257" lon="-2.0570233092"><ele>190.96</ele><time>2015-04-29T09:33:32Z</time></trkpt><trkpt lat="51.8370389566" lon="-2.0571111515"><ele>190.96</ele><time>2015-04-29T09:33:40Z</time></trkpt><trkpt lat="51.8371526152" lon="-2.0572902728"><ele>193.36</ele><time>2015-04-29T09:33:57Z</time></trkpt><trkpt lat="51.8372625858" lon="-2.0573931187"><ele>193.84</ele><time>2015-04-29T09:34:12Z</time></trkpt><trkpt lat="51.8373625819" lon="-2.0575099625"><ele>195.77</ele><time>2015-04-29T09:34:24Z</time></trkpt><trkpt lat="51.8373800162" lon="-2.0575238764"><ele>195.77</ele><time>2015-04-29T09:34:26Z</time></trkpt><trkpt lat="51.8374635838" lon="-2.0576216094"><ele>196.73</ele><time>2015-04-29T09:34:37Z</time></trkpt><trkpt lat="51.8374938425" lon="-2.0576448273"><ele>196.73</ele><time>2015-04-29T09:34:40Z</time></trkpt><trkpt lat="51.8376282044" lon="-2.0577444043"><ele>198.65</ele><time>2015-04-29T09:34:57Z</time></trkpt><trkpt lat="51.8377979379" lon="-2.0578600746"><ele>200.09</ele><time>2015-04-29T09:35:17Z</time></trkpt><trkpt lat="51.8378749676" lon="-2.0579443965"><ele>200.09</ele><time>2015-04-29T09:35:30Z</time></trkpt><trkpt lat="51.8379065674" lon="-2.0579631720"><ele>201.53</ele><time>2015-04-29T09:35:33Z</time></trkpt><trkpt lat="51.8380836770" lon="-2.0580782555"><ele>202.01</ele><time>2015-04-29T09:35:50Z</time></trkpt><trkpt lat="51.8381831702" lon="-2.0581780840"><ele>202.49</ele><time>2015-04-29T09:36:03Z</time></trkpt><trkpt lat="51.8383165263" lon="-2.0582891442"><ele>203.46</ele><time>2015-04-29T09:36:18Z</time></trkpt><trkpt lat="51.8384574261" lon="-2.0584753063"><ele>203.94</ele><time>2015-04-29T09:36:35Z</time></trkpt><trkpt lat="51.8385782093" lon="-2.0585925691"><ele>204.90</ele><time>2015-04-29T09:36:57Z</time></trkpt><trkpt lat="51.8386372179" lon="-2.0586431958"><ele>204.90</ele><time>2015-04-29T09:37:03Z</time></trkpt><trkpt lat="51.8386520538" lon="-2.0586649049"><ele>205.38</ele><time>2015-04-29T09:37:05Z</time></trkpt><trkpt lat="51.8386867549" lon="-2.0587425213"><ele>205.38</ele><time>2015-04-29T09:37:10Z</time></trkpt><trkpt lat="51.8387082126" lon="-2.0587903820"><ele>205.86</ele><time>2015-04-29T09:37:13Z</time></trkpt><trkpt lat="51.8388448376" lon="-2.0589195471"><ele>206.34</ele><time>2015-04-29T09:37:29Z</time></trkpt><trkpt lat="51.8389774393" lon="-2.0591010153"><ele>207.30</ele><time>2015-04-29T09:37:46Z</time></trkpt><trkpt lat="51.8390963785" lon="-2.0592373051"><ele>208.26</ele><time>2015-04-29T09:38:01Z</time></trkpt><trkpt lat="51.8391900044" lon="-2.0593502931"><ele>208.74</ele><time>2015-04-29T09:38:14Z</time></trkpt><trkpt lat="51.8392219394" lon="-2.0594479423"><ele>208.74</ele><time>2015-04-29T09:38:26Z</time></trkpt><trkpt lat="51.8392273877" lon="-2.0595222898"><ele>209.22</ele><time>2015-04-29T09:38:40Z</time></trkpt><trkpt lat="51.8392305728" lon="-2.0595191885"><ele>209.22</ele><time>2015-04-29T09:38:47Z</time></trkpt><trkpt lat="51.8392195925" lon="-2.0595448371"><ele>208.74</ele><time>2015-04-29T09:38:49Z</time></trkpt><trkpt lat="51.8392189220" lon="-2.0597156603"><ele>208.74</ele><time>2015-04-29T09:38:59Z</time></trkpt><trkpt lat="51.8392116297" lon="-2.0597797818"><ele>209.22</ele><time>2015-04-29T09:39:03Z</time></trkpt><trkpt lat="51.8391950335" lon="-2.0600243658"><ele>210.67</ele><time>2015-04-29T09:39:17Z</time></trkpt><trkpt lat="51.8391787726" lon="-2.0602528565"><ele>211.15</ele><time>2015-04-29T09:39:31Z</time></trkpt><trkpt lat="51.8391599972" lon="-2.0604585484"><ele>212.59</ele><time>2015-04-29T09:39:44Z</time></trkpt><trkpt lat="51.8391427305" lon="-2.0607001148"><ele>214.03</ele><time>2015-04-29T09:40:00Z</time></trkpt><trkpt lat="51.8391123880" lon="-2.0609494764"><ele>214.51</ele><time>2015-04-29T09:40:15Z</time></trkpt><trkpt lat="51.8391003180" lon="-2.0610791445"><ele>214.99</ele><time>2015-04-29T09:40:23Z</time></trkpt><trkpt lat="51.8390669581" lon="-2.0613198727"><ele>215.95</ele><time>2015-04-29T09:40:39Z</time></trkpt><trkpt lat="51.8390475120" lon="-2.0614488702"><ele>216.43</ele><time>2015-04-29T09:40:54Z</time></trkpt><trkpt lat="51.8389990646" lon="-2.0616011694"><ele>217.40</ele><time>2015-04-29T09:41:07Z</time></trkpt><trkpt lat="51.8389855698" lon="-2.0617811289"><ele>217.88</ele><time>2015-04-29T09:41:18Z</time></trkpt><trkpt lat="51.8389667105" lon="-2.0619923528"><ele>218.36</ele><time>2015-04-29T09:41:32Z</time></trkpt><trkpt lat="51.8389497790" lon="-2.0622305665"><ele>219.32</ele><time>2015-04-29T09:41:48Z</time></trkpt><trkpt lat="51.8389372900" lon="-2.0624333248"><ele>220.28</ele><time>2015-04-29T09:42:02Z</time></trkpt><trkpt lat="51.8389207777" lon="-2.0626784954"><ele>220.76</ele><time>2015-04-29T09:42:18Z</time></trkpt><trkpt lat="51.8389299139" lon="-2.0629213192"><ele>221.24</ele><time>2015-04-29T09:42:34Z</time></trkpt><trkpt lat="51.8389330991" lon="-2.0631429367"><ele>221.24</ele><time>2015-04-29T09:42:50Z</time></trkpt><trkpt lat="51.8389486894" lon="-2.0634148456"><ele>222.20</ele><time>2015-04-29T09:43:08Z</time></trkpt><trkpt lat="51.8389610946" lon="-2.0636271592"><ele>222.20</ele><time>2015-04-29T09:43:23Z</time></trkpt><trkpt lat="51.8389720749" lon="-2.0638009161"><ele>221.72</ele><time>2015-04-29T09:43:37Z</time></trkpt><trkpt lat="51.8389796186" lon="-2.0639895927"><ele>222.20</ele><time>2015-04-29T09:43:50Z</time></trkpt><trkpt lat="51.8389814626" lon="-2.0641924348"><ele>222.68</ele><time>2015-04-29T09:44:04Z</time></trkpt><trkpt lat="51.8390066084" lon="-2.0644133817"><ele>222.68</ele><time>2015-04-29T09:44:20Z</time></trkpt><trkpt lat="51.8390170857" lon="-2.0646017231"><ele>223.16</ele><time>2015-04-29T09:44:34Z</time></trkpt><trkpt lat="51.8390378729" lon="-2.0647859573"><ele>223.64</ele><time>2015-04-29T09:44:47Z</time></trkpt><trkpt lat="51.8390605878" lon="-2.0650309604"><ele>223.64</ele><time>2015-04-29T09:45:05Z</time></trkpt><trkpt lat="51.8390733283" lon="-2.0652723592"><ele>224.12</ele><time>2015-04-29T09:45:22Z</time></trkpt><trkpt lat="51.8391004018" lon="-2.0654530730"><ele>224.61</ele><time>2015-04-29T09:45:36Z</time></trkpt><trkpt lat="51.8391075265" lon="-2.0656202082"><ele>224.61</ele><time>2015-04-29T09:45:48Z</time></trkpt><trkpt lat="51.8391113821" lon="-2.0657837391"><ele>225.09</ele><time>2015-04-29T09:46:02Z</time></trkpt><trkpt lat="51.8391142320" lon="-2.0658988226"><ele>226.05</ele><time>2015-04-29T09:46:10Z</time></trkpt><trkpt lat="51.8391238712" lon="-2.0661227033"><ele>226.53</ele><time>2015-04-29T09:46:23Z</time></trkpt><trkpt lat="51.8391250446" lon="-2.0662420616"><ele>226.53</ele><time>2015-04-29T09:46:38Z</time></trkpt><trkpt lat="51.8391212728" lon="-2.0662817080"><ele>226.53</ele><time>2015-04-29T09:46:52Z</time></trkpt><trkpt lat="51.8390905112" lon="-2.0662939455"><ele>227.01</ele><time>2015-04-29T09:47:05Z</time></trkpt><trkpt lat="51.8390908465" lon="-2.0663081948"><ele>225.57</ele><time>2015-04-29T09:47:22Z</time></trkpt><trkpt lat="51.8390853144" lon="-2.0663976297"><ele>226.05</ele><time>2015-04-29T09:47:35Z</time></trkpt><trkpt lat="51.8390820455" lon="-2.0664148126"><ele>225.57</ele><time>2015-04-29T09:47:49Z</time></trkpt><trkpt lat="51.8390446622" lon="-2.0665966999"><ele>225.57</ele><time>2015-04-29T09:48:01Z</time></trkpt><trkpt lat="51.8390076142" lon="-2.0667241886"><ele>225.57</ele><time>2015-04-29T09:48:12Z</time></trkpt><trkpt lat="51.8390009925" lon="-2.0667605661"><ele>225.57</ele><time>2015-04-29T09:48:14Z</time></trkpt><trkpt lat="51.8389915209" lon="-2.0668525156"><ele>225.57</ele><time>2015-04-29T09:48:19Z</time></trkpt><trkpt lat="51.8389549758" lon="-2.0669971034"><ele>226.53</ele><time>2015-04-29T09:48:27Z</time></trkpt><trkpt lat="51.8389017507" lon="-2.0672581159"><ele>226.05</ele><time>2015-04-29T09:48:43Z</time></trkpt><trkpt lat="51.8388374615" lon="-2.0675051305"><ele>226.53</ele><time>2015-04-29T09:49:00Z</time></trkpt><trkpt lat="51.8387897685" lon="-2.0677070506"><ele>227.01</ele><time>2015-04-29T09:49:15Z</time></trkpt><trkpt lat="51.8387477752" lon="-2.0679079648"><ele>227.49</ele><time>2015-04-29T09:49:29Z</time></trkpt><trkpt lat="51.8387026805" lon="-2.0681289118"><ele>228.93</ele><time>2015-04-29T09:49:46Z</time></trkpt><trkpt lat="51.8386522215" lon="-2.0683235396"><ele>228.45</ele><time>2015-04-29T09:50:00Z</time></trkpt><trkpt lat="51.8386160117" lon="-2.0685130544"><ele>229.41</ele><time>2015-04-29T09:50:14Z</time></trkpt><trkpt lat="51.8386104796" lon="-2.0685421396"><ele>229.41</ele><time>2015-04-29T09:50:16Z</time></trkpt><trkpt lat="51.8385435920" lon="-2.0687322412"><ele>229.89</ele><time>2015-04-29T09:50:30Z</time></trkpt><trkpt lat="51.8384966534" lon="-2.0689329039"><ele>230.85</ele><time>2015-04-29T09:50:46Z</time></trkpt><trkpt lat="51.8384344596" lon="-2.0691244304"><ele>230.37</ele><time>2015-04-29T09:51:02Z</time></trkpt><trkpt lat="51.8383947294" lon="-2.0693165436"><ele>230.85</ele><time>2015-04-29T09:51:17Z</time></trkpt><trkpt lat="51.8383348826" lon="-2.0695027895"><ele>230.37</ele><time>2015-04-29T09:51:34Z</time></trkpt><trkpt lat="51.8382778019" lon="-2.0697032847"><ele>230.37</ele><time>2015-04-29T09:51:50Z</time></trkpt><trkpt lat="51.8382083997" lon="-2.0698956493"><ele>231.33</ele><time>2015-04-29T09:52:06Z</time></trkpt><trkpt lat="51.8381446972" lon="-2.0701239724"><ele>230.85</ele><time>2015-04-29T09:52:24Z</time></trkpt><trkpt lat="51.8380866945" lon="-2.0702522993"><ele>230.37</ele><time>2015-04-29T09:52:35Z</time></trkpt><trkpt lat="51.8380348943" lon="-2.0704421494"><ele>230.37</ele><time>2015-04-29T09:52:50Z</time></trkpt><trkpt lat="51.8379742093" lon="-2.0706665330"><ele>229.89</ele><time>2015-04-29T09:53:06Z</time></trkpt><trkpt lat="51.8378980178" lon="-2.0708599035"><ele>229.41</ele><time>2015-04-29T09:53:22Z</time></trkpt><trkpt lat="51.8378235027" lon="-2.0710396115"><ele>229.41</ele><time>2015-04-29T09:53:36Z</time></trkpt><trkpt lat="51.8377693556" lon="-2.0712253544"><ele>229.41</ele><time>2015-04-29T09:53:50Z</time></trkpt><trkpt lat="51.8376962654" lon="-2.0714019611"><ele>228.45</ele><time>2015-04-29T09:54:05Z</time></trkpt><trkpt lat="51.8376636598" lon="-2.0714684296"><ele>228.93</ele><time>2015-04-29T09:54:11Z</time></trkpt><trkpt lat="51.8376385979" lon="-2.0715280250"><ele>227.97</ele><time>2015-04-29T09:54:16Z</time></trkpt><trkpt lat="51.8376278691" lon="-2.0715513267"><ele>227.97</ele><time>2015-04-29T09:54:18Z</time></trkpt><trkpt lat="51.8375354167" lon="-2.0717202220"><ele>227.97</ele><time>2015-04-29T09:54:33Z</time></trkpt><trkpt lat="51.8374862988" lon="-2.0718803164"><ele>227.49</ele><time>2015-04-29T09:54:46Z</time></trkpt><trkpt lat="51.8374252785" lon="-2.0720165223"><ele>227.01</ele><time>2015-04-29T09:54:57Z</time></trkpt><trkpt lat="51.8373728078" lon="-2.0720917080"><ele>226.53</ele><time>2015-04-29T09:55:05Z</time></trkpt><trkpt lat="51.8373214267" lon="-2.0721591823"><ele>226.05</ele><time>2015-04-29T09:55:12Z</time></trkpt><trkpt lat="51.8372480851" lon="-2.0722933766"><ele>226.05</ele><time>2015-04-29T09:55:24Z</time></trkpt><trkpt lat="51.8371432275" lon="-2.0723903552"><ele>226.05</ele><time>2015-04-29T09:55:36Z</time></trkpt><trkpt lat="51.8370392080" lon="-2.0725450851"><ele>225.57</ele><time>2015-04-29T09:55:51Z</time></trkpt><trkpt lat="51.8369209394" lon="-2.0726644434"><ele>225.09</ele><time>2015-04-29T09:56:05Z</time></trkpt><trkpt lat="51.8368478492" lon="-2.0727382880"><ele>225.57</ele><time>2015-04-29T09:56:14Z</time></trkpt><trkpt lat="51.8367476016" lon="-2.0728693809"><ele>226.05</ele><time>2015-04-29T09:56:29Z</time></trkpt><trkpt lat="51.8366642855" lon="-2.0729842968"><ele>226.05</ele><time>2015-04-29T09:56:42Z</time></trkpt><trkpt lat="51.8365329411" lon="-2.0731359255"><ele>227.01</ele><time>2015-04-29T09:56:59Z</time></trkpt><trkpt lat="51.8364494573" lon="-2.0732552838"><ele>227.49</ele><time>2015-04-29T09:57:12Z</time></trkpt><trkpt lat="51.8363430072" lon="-2.0733907353"><ele>227.49</ele><time>2015-04-29T09:57:26Z</time></trkpt><trkpt lat="51.8362217210" lon="-2.0735455491"><ele>227.49</ele><time>2015-04-29T09:57:43Z</time></trkpt><trkpt lat="51.8361523189" lon="-2.0736400969"><ele>228.45</ele><time>2015-04-29T09:57:56Z</time></trkpt><trkpt lat="51.8361579347" lon="-2.0736385882"><ele>228.45</ele><time>2015-04-29T09:58:13Z</time></trkpt><trkpt lat="51.8361699209" lon="-2.0736647397"><ele>228.93</ele><time>2015-04-29T09:58:30Z</time></trkpt><trkpt lat="51.8361998443" lon="-2.0737437811"><ele>229.89</ele><time>2015-04-29T09:58:43Z</time></trkpt><trkpt lat="51.8361914624" lon="-2.0737463795"><ele>229.41</ele><time>2015-04-29T09:58:59Z</time></trkpt><trkpt lat="51.8361861818" lon="-2.0738048013"><ele>229.89</ele><time>2015-04-29T09:59:12Z</time></trkpt><trkpt lat="51.8361865170" lon="-2.0737817511"><ele>229.41</ele><time>2015-04-29T09:59:27Z</time></trkpt><trkpt lat="51.8361819908" lon="-2.0737615507"><ele>228.93</ele><time>2015-04-29T09:59:49Z</time></trkpt><trkpt lat="51.8361763749" lon="-2.0737531688"><ele>229.41</ele><time>2015-04-29T10:00:14Z</time></trkpt><trkpt lat="51.8361741956" lon="-2.0737487264"><ele>229.89</ele><time>2015-04-29T10:00:43Z</time></trkpt><trkpt lat="51.8361735251" lon="-2.0737486426"><ele>229.89</ele><time>2015-04-29T10:01:03Z</time></trkpt><trkpt lat="51.8361754529" lon="-2.0737499837"><ele>229.41</ele><time>2015-04-29T10:01:22Z</time></trkpt><trkpt lat="51.8361803982" lon="-2.0737535041"><ele>229.89</ele><time>2015-04-29T10:01:46Z</time></trkpt><trkpt lat="51.8361777160" lon="-2.0737534203"><ele>229.41</ele><time>2015-04-29T10:02:08Z</time></trkpt><trkpt lat="51.8361750338" lon="-2.0737569407"><ele>229.41</ele><time>2015-04-29T10:02:34Z</time></trkpt><trkpt lat="51.8361726869" lon="-2.0737615507"><ele>230.37</ele><time>2015-04-29T10:03:01Z</time></trkpt><trkpt lat="51.8361684121" lon="-2.0737963356"><ele>230.37</ele><time>2015-04-29T10:03:18Z</time></trkpt><trkpt lat="51.8361834995" lon="-2.0737537555"><ele>230.37</ele><time>2015-04-29T10:03:37Z</time></trkpt><trkpt lat="51.8361859303" lon="-2.0737532526"><ele>229.89</ele><time>2015-04-29T10:04:06Z</time></trkpt><trkpt lat="51.8361877743" lon="-2.0737494808"><ele>229.89</ele><time>2015-04-29T10:04:37Z</time></trkpt><trkpt lat="51.8361855950" lon="-2.0737486426"><ele>229.89</ele><time>2015-04-29T10:05:01Z</time></trkpt><trkpt lat="51.8361824937" lon="-2.0737489779"><ele>229.89</ele><time>2015-04-29T10:05:29Z</time></trkpt><trkpt lat="51.8361841701" lon="-2.0737519953"><ele>230.37</ele><time>2015-04-29T10:05:56Z</time></trkpt><trkpt lat="51.8361910433" lon="-2.0737493970"><ele>230.37</ele><time>2015-04-29T10:06:20Z</time></trkpt><trkpt lat="51.8362002634" lon="-2.0737368241"><ele>230.85</ele><time>2015-04-29T10:06:39Z</time></trkpt><trkpt lat="51.8362033647" lon="-2.0737319626"><ele>231.33</ele><time>2015-04-29T10:07:02Z</time></trkpt><trkpt lat="51.8362053763" lon="-2.0737307053"><ele>230.85</ele><time>2015-04-29T10:07:30Z</time></trkpt><trkpt lat="51.8362062983" lon="-2.0737344772"><ele>231.33</ele><time>2015-04-29T10:08:02Z</time></trkpt><trkpt lat="51.8362082262" lon="-2.0737371594"><ele>231.33</ele><time>2015-04-29T10:08:31Z</time></trkpt><trkpt lat="51.8362061307" lon="-2.0737394225"><ele>231.33</ele><time>2015-04-29T10:08:58Z</time></trkpt><trkpt lat="51.8362041190" lon="-2.0737389196"><ele>231.81</ele><time>2015-04-29T10:09:22Z</time></trkpt><trkpt lat="51.8362059630" lon="-2.0737436134"><ele>231.81</ele><time>2015-04-29T10:09:48Z</time></trkpt><trkpt lat="51.8361779675" lon="-2.0737952460"><ele>230.85</ele><time>2015-04-29T10:10:02Z</time></trkpt><trkpt lat="51.8362023588" lon="-2.0737521630"><ele>230.85</ele><time>2015-04-29T10:10:17Z</time></trkpt><trkpt lat="51.8361987546" lon="-2.0737543423"><ele>231.33</ele><time>2015-04-29T10:10:39Z</time></trkpt><trkpt lat="51.8362014368" lon="-2.0737571083"><ele>231.33</ele><time>2015-04-29T10:11:10Z</time></trkpt><trkpt lat="51.8362028617" lon="-2.0737644006"><ele>231.33</ele><time>2015-04-29T10:11:38Z</time></trkpt><trkpt lat="51.8361900374" lon="-2.0737962518"><ele>231.33</ele><time>2015-04-29T10:12:03Z</time></trkpt><trkpt lat="51.8361967430" lon="-2.0737830922"><ele>230.85</ele><time>2015-04-29T10:12:22Z</time></trkpt><trkpt lat="51.8361767102" lon="-2.0737369079"><ele>230.85</ele><time>2015-04-29T10:12:37Z</time></trkpt><trkpt lat="51.8360633869" lon="-2.0737215690"><ele>230.37</ele><time>2015-04-29T10:12:52Z</time></trkpt><trkpt lat="51.8359919731" lon="-2.0738581941"><ele>230.37</ele><time>2015-04-29T10:13:08Z</time></trkpt><trkpt lat="51.8359186314" lon="-2.0740550850"><ele>230.85</ele><time>2015-04-29T10:13:25Z</time></trkpt><trkpt lat="51.8358064815" lon="-2.0743142534"><ele>230.85</ele><time>2015-04-29T10:13:45Z</time></trkpt><trkpt lat="51.8356893864" lon="-2.0745454263"><ele>230.85</ele><time>2015-04-29T10:14:03Z</time></trkpt><trkpt lat="51.8356085848" lon="-2.0747734979"><ele>229.89</ele><time>2015-04-29T10:14:21Z</time></trkpt><trkpt lat="51.8355908990" lon="-2.0748486836"><ele>229.89</ele><time>2015-04-29T10:14:41Z</time></trkpt><trkpt lat="51.8355513364" lon="-2.0749729034"><ele>229.41</ele><time>2015-04-29T10:15:01Z</time></trkpt><trkpt lat="51.8354378454" lon="-2.0753379352"><ele>227.01</ele><time>2015-04-29T10:15:23Z</time></trkpt><trkpt lat="51.8353469856" lon="-2.0755767357"><ele>226.53</ele><time>2015-04-29T10:15:42Z</time></trkpt><trkpt lat="51.8352759909" lon="-2.0756401028"><ele>227.01</ele><time>2015-04-29T10:15:58Z</time></trkpt><trkpt lat="51.8352138810" lon="-2.0757266879"><ele>227.97</ele><time>2015-04-29T10:16:15Z</time></trkpt><trkpt lat="51.8352469057" lon="-2.0756728761"><ele>228.45</ele><time>2015-04-29T10:16:35Z</time></trkpt><trkpt lat="51.8351754919" lon="-2.0757193957"><ele>229.41</ele><time>2015-04-29T10:16:55Z</time></trkpt><trkpt lat="51.8350470811" lon="-2.0759215672"><ele>228.93</ele><time>2015-04-29T10:17:13Z</time></trkpt><trkpt lat="51.8349649385" lon="-2.0760459546"><ele>228.93</ele><time>2015-04-29T10:17:32Z</time></trkpt><trkpt lat="51.8348617572" lon="-2.0763850864"><ele>228.45</ele><time>2015-04-29T10:17:50Z</time></trkpt><trkpt lat="51.8348054308" lon="-2.0766207017"><ele>228.45</ele><time>2015-04-29T10:18:05Z</time></trkpt><trkpt lat="51.8347400520" lon="-2.0768896770"><ele>227.97</ele><time>2015-04-29T10:18:21Z</time></trkpt><trkpt lat="51.8347087037" lon="-2.0770418923"><ele>227.49</ele><time>2015-04-29T10:18:34Z</time></trkpt><trkpt lat="51.8346565682" lon="-2.0772995520"><ele>227.49</ele><time>2015-04-29T10:18:48Z</time></trkpt><trkpt lat="51.8346256390" lon="-2.0774319861"><ele>227.49</ele><time>2015-04-29T10:18:56Z</time></trkpt><trkpt lat="51.8345749285" lon="-2.0776648354"><ele>227.01</ele><time>2015-04-29T10:19:11Z</time></trkpt><trkpt lat="51.8345393892" lon="-2.0778679289"><ele>227.97</ele><time>2015-04-29T10:19:24Z</time></trkpt><trkpt lat="51.8345058616" lon="-2.0779641531"><ele>227.97</ele><time>2015-04-29T10:19:31Z</time></trkpt><trkpt lat="51.8344094697" lon="-2.0781253371"><ele>228.45</ele><time>2015-04-29T10:19:45Z</time></trkpt><trkpt lat="51.8343611900" lon="-2.0782722719"><ele>228.45</ele><time>2015-04-29T10:19:58Z</time></trkpt><trkpt lat="51.8342621997" lon="-2.0784569252"><ele>229.41</ele><time>2015-04-29T10:20:12Z</time></trkpt><trkpt lat="51.8341989163" lon="-2.0786513854"><ele>230.37</ele><time>2015-04-29T10:20:27Z</time></trkpt><trkpt lat="51.8341135886" lon="-2.0788134076"><ele>231.81</ele><time>2015-04-29T10:20:45Z</time></trkpt><trkpt lat="51.8340463657" lon="-2.0789215341"><ele>233.26</ele><time>2015-04-29T10:20:58Z</time></trkpt><trkpt lat="51.8339432683" lon="-2.0790538006"><ele>234.70</ele><time>2015-04-29T10:21:15Z</time></trkpt><trkpt lat="51.8338960782" lon="-2.0791312493"><ele>235.66</ele><time>2015-04-29T10:21:26Z</time></trkpt><trkpt lat="51.8338316213" lon="-2.0792615041"><ele>236.62</ele><time>2015-04-29T10:21:40Z</time></trkpt><trkpt lat="51.8337271828" lon="-2.0793699659"><ele>237.58</ele><time>2015-04-29T10:21:56Z</time></trkpt><trkpt lat="51.8336321320" lon="-2.0794293936"><ele>237.58</ele><time>2015-04-29T10:22:09Z</time></trkpt><trkpt lat="51.8335270230" lon="-2.0794577245"><ele>239.51</ele><time>2015-04-29T10:22:24Z</time></trkpt><trkpt lat="51.8333970197" lon="-2.0795229357"><ele>239.51</ele><time>2015-04-29T10:22:39Z</time></trkpt><trkpt lat="51.8332439661" lon="-2.0794753265"><ele>239.51</ele><time>2015-04-29T10:22:56Z</time></trkpt><trkpt lat="51.8331213389" lon="-2.0795640908"><ele>240.47</ele><time>2015-04-29T10:23:15Z</time></trkpt><trkpt lat="51.8330009747" lon="-2.0796186570"><ele>241.43</ele><time>2015-04-29T10:23:29Z</time></trkpt><trkpt lat="51.8328039162" lon="-2.0796538610"><ele>242.87</ele><time>2015-04-29T10:23:48Z</time></trkpt><trkpt lat="51.8326802831" lon="-2.0797409490"><ele>243.83</ele><time>2015-04-29T10:24:02Z</time></trkpt><trkpt lat="51.8326616753" lon="-2.0797064155"><ele>243.83</ele><time>2015-04-29T10:24:14Z</time></trkpt><trkpt lat="51.8326526228" lon="-2.0796971954"><ele>243.83</ele><time>2015-04-29T10:24:35Z</time></trkpt><trkpt lat="51.8326510303" lon="-2.0796954352"><ele>244.31</ele><time>2015-04-29T10:24:58Z</time></trkpt><trkpt lat="51.8326599151" lon="-2.0796970278"><ele>244.31</ele><time>2015-04-29T10:25:13Z</time></trkpt><trkpt lat="51.8326643575" lon="-2.0796960220"><ele>243.83</ele><time>2015-04-29T10:25:35Z</time></trkpt><trkpt lat="51.8326411396" lon="-2.0797329862"><ele>244.31</ele><time>2015-04-29T10:25:49Z</time></trkpt><trkpt lat="51.8326091208" lon="-2.0797556173"><ele>244.31</ele><time>2015-04-29T10:25:53Z</time></trkpt><trkpt lat="51.8325356953" lon="-2.0798071660"><ele>245.75</ele><time>2015-04-29T10:26:02Z</time></trkpt><trkpt lat="51.8323896825" lon="-2.0798750594"><ele>247.20</ele><time>2015-04-29T10:26:15Z</time></trkpt><trkpt lat="51.8322579190" lon="-2.0799074974"><ele>248.64</ele><time>2015-04-29T10:26:27Z</time></trkpt><trkpt lat="51.8321637902" lon="-2.0800905582"><ele>250.08</ele><time>2015-04-29T10:26:40Z</time></trkpt><trkpt lat="51.8321099784" lon="-2.0801597089"><ele>251.04</ele><time>2015-04-29T10:26:46Z</time></trkpt><trkpt lat="51.8320428394" lon="-2.0802637283"><ele>252.96</ele><time>2015-04-29T10:26:55Z</time></trkpt><trkpt lat="51.8319622055" lon="-2.0803002734"><ele>253.93</ele><time>2015-04-29T10:27:03Z</time></trkpt><trkpt lat="51.8319031131" lon="-2.0802952442"><ele>254.41</ele><time>2015-04-29T10:27:09Z</time></trkpt><trkpt lat="51.8318519834" lon="-2.0803477149"><ele>256.81</ele><time>2015-04-29T10:27:16Z</time></trkpt><trkpt lat="51.8317270931" lon="-2.0803889539"><ele>258.73</ele><time>2015-04-29T10:27:28Z</time></trkpt><trkpt lat="51.8315915577" lon="-2.0804913808"><ele>261.14</ele><time>2015-04-29T10:27:41Z</time></trkpt><trkpt lat="51.8315000273" lon="-2.0806385670"><ele>263.54</ele><time>2015-04-29T10:27:55Z</time></trkpt><trkpt lat="51.8314784858" lon="-2.0806987491"><ele>264.50</ele><time>2015-04-29T10:27:59Z</time></trkpt><trkpt lat="51.8313621450" lon="-2.0808267407"><ele>266.42</ele><time>2015-04-29T10:28:13Z</time></trkpt><trkpt lat="51.8313141167" lon="-2.0808563288"><ele>267.38</ele><time>2015-04-29T10:28:20Z</time></trkpt><trkpt lat="51.8312922399" lon="-2.0808983222"><ele>267.86</ele><time>2015-04-29T10:28:32Z</time></trkpt><trkpt lat="51.8312962633" lon="-2.0809261501"><ele>268.35</ele><time>2015-04-29T10:28:43Z</time></trkpt><trkpt lat="51.8312945869" lon="-2.0809275750"><ele>268.83</ele><time>2015-04-29T10:29:08Z</time></trkpt><trkpt lat="51.8312856182" lon="-2.0809378847"><ele>268.83</ele><time>2015-04-29T10:29:29Z</time></trkpt><trkpt lat="51.8312913179" lon="-2.0809415728"><ele>268.83</ele><time>2015-04-29T10:29:57Z</time></trkpt><trkpt lat="51.8312888034" lon="-2.0809308439"><ele>268.35</ele><time>2015-04-29T10:30:31Z</time></trkpt><trkpt lat="51.8312895577" lon="-2.0809282456"><ele>269.31</ele><time>2015-04-29T10:30:57Z</time></trkpt><trkpt lat="51.8312856182" lon="-2.0809443388"><ele>268.83</ele><time>2015-04-29T10:31:20Z</time></trkpt><trkpt lat="51.8312571198" lon="-2.0809131581"><ele>268.83</ele><time>2015-04-29T10:31:32Z</time></trkpt><trkpt lat="51.8312415294" lon="-2.0808871742"><ele>268.83</ele><time>2015-04-29T10:31:49Z</time></trkpt><trkpt lat="51.8312061578" lon="-2.0809498709"><ele>269.31</ele><time>2015-04-29T10:32:01Z</time></trkpt><trkpt lat="51.8312045652" lon="-2.0809585042"><ele>269.79</ele><time>2015-04-29T10:32:19Z</time></trkpt><trkpt lat="51.8311425392" lon="-2.0810025930"><ele>270.27</ele><time>2015-04-29T10:32:34Z</time></trkpt><trkpt lat="51.8310821895" lon="-2.0810956322"><ele>270.75</ele><time>2015-04-29T10:32:46Z</time></trkpt><trkpt lat="51.8309433013" lon="-2.0812714007"><ele>271.71</ele><time>2015-04-29T10:33:02Z</time></trkpt><trkpt lat="51.8309226818" lon="-2.0812890865"><ele>271.71</ele><time>2015-04-29T10:33:04Z</time></trkpt><trkpt lat="51.8308578059" lon="-2.0813404676"><ele>272.19</ele><time>2015-04-29T10:33:11Z</time></trkpt><trkpt lat="51.8308051676" lon="-2.0813753363"><ele>272.67</ele><time>2015-04-29T10:33:17Z</time></trkpt><trkpt lat="51.8307175767" lon="-2.0814645197"><ele>273.15</ele><time>2015-04-29T10:33:28Z</time></trkpt><trkpt lat="51.8306901678" lon="-2.0814905874"><ele>273.63</ele><time>2015-04-29T10:33:31Z</time></trkpt><trkpt lat="51.8305638526" lon="-2.0815818664"><ele>274.59</ele><time>2015-04-29T10:33:45Z</time></trkpt><trkpt lat="51.8305058498" lon="-2.0816261228"><ele>275.56</ele><time>2015-04-29T10:33:53Z</time></trkpt><trkpt lat="51.8303741701" lon="-2.0816977881"><ele>277.00</ele><time>2015-04-29T10:34:10Z</time></trkpt><trkpt lat="51.8303384632" lon="-2.0817342494"><ele>277.96</ele><time>2015-04-29T10:34:22Z</time></trkpt><trkpt lat="51.8302424904" lon="-2.0818448067"><ele>278.92</ele><time>2015-04-29T10:34:35Z</time></trkpt><trkpt lat="51.8301240541" lon="-2.0819971897"><ele>279.88</ele><time>2015-04-29T10:34:51Z</time></trkpt><trkpt lat="51.8300880957" lon="-2.0820447151"><ele>280.36</ele><time>2015-04-29T10:34:57Z</time></trkpt><trkpt lat="51.8300336972" lon="-2.0821106806"><ele>280.36</ele><time>2015-04-29T10:35:03Z</time></trkpt><trkpt lat="51.8300099764" lon="-2.0821387600"><ele>280.36</ele><time>2015-04-29T10:35:06Z</time></trkpt><trkpt lat="51.8298638798" lon="-2.0822922327"><ele>280.84</ele><time>2015-04-29T10:35:23Z</time></trkpt><trkpt lat="51.8297961541" lon="-2.0824076515"><ele>281.80</ele><time>2015-04-29T10:35:34Z</time></trkpt><trkpt lat="51.8297247402" lon="-2.0825271774"><ele>281.80</ele><time>2015-04-29T10:35:45Z</time></trkpt><trkpt lat="51.8296924699" lon="-2.0825777203"><ele>281.32</ele><time>2015-04-29T10:35:49Z</time></trkpt><trkpt lat="51.8296340480" lon="-2.0826783031"><ele>282.28</ele><time>2015-04-29T10:35:57Z</time></trkpt><trkpt lat="51.8295783084" lon="-2.0827425085"><ele>281.32</ele><time>2015-04-29T10:36:12Z</time></trkpt><trkpt lat="51.8295594491" lon="-2.0827347971"><ele>282.28</ele><time>2015-04-29T10:36:35Z</time></trkpt><trkpt lat="51.8295581918" lon="-2.0826655626"><ele>281.80</ele><time>2015-04-29T10:36:50Z</time></trkpt><trkpt lat="51.8295279332" lon="-2.0826621260"><ele>281.80</ele><time>2015-04-29T10:37:02Z</time></trkpt><trkpt lat="51.8295327947" lon="-2.0826617070"><ele>281.80</ele><time>2015-04-29T10:37:18Z</time></trkpt><trkpt lat="51.8295235746" lon="-2.0826314483"><ele>281.80</ele><time>2015-04-29T10:37:21Z</time></trkpt><trkpt lat="51.8294845149" lon="-2.0825167000"><ele>282.28</ele><time>2015-04-29T10:37:29Z</time></trkpt><trkpt lat="51.8294556811" lon="-2.0824363176"><ele>282.28</ele><time>2015-04-29T10:37:33Z</time></trkpt><trkpt lat="51.8293784000" lon="-2.0822031330"><ele>282.28</ele><time>2015-04-29T10:37:47Z</time></trkpt><trkpt lat="51.8293211516" lon="-2.0819797553"><ele>282.77</ele><time>2015-04-29T10:38:00Z</time></trkpt><trkpt lat="51.8292621430" lon="-2.0817483310"><ele>283.25</ele><time>2015-04-29T10:38:15Z</time></trkpt><trkpt lat="51.8291858677" lon="-2.0814982150"><ele>283.73</ele><time>2015-04-29T10:38:30Z</time></trkpt><trkpt lat="51.8291033898" lon="-2.0812656172"><ele>284.69</ele><time>2015-04-29T10:38:46Z</time></trkpt><trkpt lat="51.8290282041" lon="-2.0810073707"><ele>284.69</ele><time>2015-04-29T10:39:03Z</time></trkpt><trkpt lat="51.8290206604" lon="-2.0809742622"><ele>284.69</ele><time>2015-04-29T10:39:05Z</time></trkpt><trkpt lat="51.8289323151" lon="-2.0808019303"><ele>285.65</ele><time>2015-04-29T10:39:20Z</time></trkpt><trkpt lat="51.8288659304" lon="-2.0806753635"><ele>285.17</ele><time>2015-04-29T10:39:32Z</time></trkpt><trkpt lat="51.8288243562" lon="-2.0806096494"><ele>285.17</ele><time>2015-04-29T10:39:38Z</time></trkpt><trkpt lat="51.8288053293" lon="-2.0805858448"><ele>285.17</ele><time>2015-04-29T10:39:41Z</time></trkpt><trkpt lat="51.8287163135" lon="-2.0804410055"><ele>285.17</ele><time>2015-04-29T10:39:55Z</time></trkpt><trkpt lat="51.8286873959" lon="-2.0804045442"><ele>285.17</ele><time>2015-04-29T10:39:59Z</time></trkpt><trkpt lat="51.8286523595" lon="-2.0803614613"><ele>285.65</ele><time>2015-04-29T10:40:04Z</time></trkpt><trkpt lat="51.8285635114" lon="-2.0802081563"><ele>285.65</ele><time>2015-04-29T10:40:18Z</time></trkpt><trkpt lat="51.8285378627" lon="-2.0801763050"><ele>285.17</ele><time>2015-04-29T10:40:22Z</time></trkpt><trkpt lat="51.8285200093" lon="-2.0801544283"><ele>284.69</ele><time>2015-04-29T10:40:24Z</time></trkpt><trkpt lat="51.8284900859" lon="-2.0800899714"><ele>285.65</ele><time>2015-04-29T10:40:29Z</time></trkpt><trkpt lat="51.8284123018" lon="-2.0799316373"><ele>285.17</ele><time>2015-04-29T10:40:42Z</time></trkpt><trkpt lat="51.8283510301" lon="-2.0797925815"><ele>286.13</ele><time>2015-04-29T10:40:55Z</time></trkpt><trkpt lat="51.8283378705" lon="-2.0797841158"><ele>285.17</ele><time>2015-04-29T10:41:06Z</time></trkpt><trkpt lat="51.8283095397" lon="-2.0797753148"><ele>285.17</ele><time>2015-04-29T10:41:09Z</time></trkpt><trkpt lat="51.8281887565" lon="-2.0797401108"><ele>284.21</ele><time>2015-04-29T10:41:23Z</time></trkpt><trkpt lat="51.8280721642" lon="-2.0796915796"><ele>283.73</ele><time>2015-04-29T10:41:36Z</time></trkpt><trkpt lat="51.8279625289" lon="-2.0796640869"><ele>284.21</ele><time>2015-04-29T10:41:49Z</time></trkpt><trkpt lat="51.8279404845" lon="-2.0796632487"><ele>283.73</ele><time>2015-04-29T10:42:06Z</time></trkpt><trkpt lat="51.8279239722" lon="-2.0796587225"><ele>283.73</ele><time>2015-04-29T10:42:32Z</time></trkpt><trkpt lat="51.8278606050" lon="-2.0796319004"><ele>283.73</ele><time>2015-04-29T10:42:59Z</time></trkpt><trkpt lat="51.8277767859" lon="-2.0796018094"><ele>284.21</ele><time>2015-04-29T10:43:10Z</time></trkpt><trkpt lat="51.8277449347" lon="-2.0795726404"><ele>283.73</ele><time>2015-04-29T10:43:14Z</time></trkpt><trkpt lat="51.8276866805" lon="-2.0795453992"><ele>283.73</ele><time>2015-04-29T10:43:21Z</time></trkpt><trkpt lat="51.8276063818" lon="-2.0794918388"><ele>283.73</ele><time>2015-04-29T10:43:35Z</time></trkpt><trkpt lat="51.8275592756" lon="-2.0794512704"><ele>283.73</ele><time>2015-04-29T10:43:41Z</time></trkpt><trkpt lat="51.8274409231" lon="-2.0793537889"><ele>283.25</ele><time>2015-04-29T10:43:57Z</time></trkpt><trkpt lat="51.8274129275" lon="-2.0793210994"><ele>282.77</ele><time>2015-04-29T10:44:02Z</time></trkpt><trkpt lat="51.8273345567" lon="-2.0792554691"><ele>282.28</ele><time>2015-04-29T10:44:08Z</time></trkpt><trkpt lat="51.8272344768" lon="-2.0791416429"><ele>281.80</ele><time>2015-04-29T10:44:16Z</time></trkpt><trkpt lat="51.8272059783" lon="-2.0791081153"><ele>281.80</ele><time>2015-04-29T10:44:18Z</time></trkpt><trkpt lat="51.8270591274" lon="-2.0789377950"><ele>280.36</ele><time>2015-04-29T10:44:32Z</time></trkpt><trkpt lat="51.8269214965" lon="-2.0787816402"><ele>280.36</ele><time>2015-04-29T10:44:45Z</time></trkpt><trkpt lat="51.8268395215" lon="-2.0787011739"><ele>280.84</ele><time>2015-04-29T10:44:55Z</time></trkpt><trkpt lat="51.8268149626" lon="-2.0786723401"><ele>279.88</ele><time>2015-04-29T10:44:58Z</time></trkpt><trkpt lat="51.8267070875" lon="-2.0785591006"><ele>280.36</ele><time>2015-04-29T10:45:11Z</time></trkpt><trkpt lat="51.8266911618" lon="-2.0785449352"><ele>280.36</ele><time>2015-04-29T10:45:13Z</time></trkpt><trkpt lat="51.8266058341" lon="-2.0784508903"><ele>279.88</ele><time>2015-04-29T10:45:24Z</time></trkpt><trkpt lat="51.8265637569" lon="-2.0784197934"><ele>279.88</ele><time>2015-04-29T10:45:29Z</time></trkpt><trkpt lat="51.8264499307" lon="-2.0782967471"><ele>279.88</ele><time>2015-04-29T10:45:43Z</time></trkpt><trkpt lat="51.8263397086" lon="-2.0781646483"><ele>278.92</ele><time>2015-04-29T10:45:56Z</time></trkpt><trkpt lat="51.8262940273" lon="-2.0781218167"><ele>278.92</ele><time>2015-04-29T10:46:02Z</time></trkpt><trkpt lat="51.8261939473" lon="-2.0780018717"><ele>279.40</ele><time>2015-04-29T10:46:16Z</time></trkpt><trkpt lat="51.8260755111" lon="-2.0778514165"><ele>278.92</ele><time>2015-04-29T10:46:31Z</time></trkpt><trkpt lat="51.8260333501" lon="-2.0777972694"><ele>279.40</ele><time>2015-04-29T10:46:37Z</time></trkpt><trkpt lat="51.8259150814" lon="-2.0776717924"><ele>279.40</ele><time>2015-04-29T10:46:51Z</time></trkpt><trkpt lat="51.8258150853" lon="-2.0775793400"><ele>279.88</ele><time>2015-04-29T10:47:03Z</time></trkpt><trkpt lat="51.8256792985" lon="-2.0774816908"><ele>278.44</ele><time>2015-04-29T10:47:18Z</time></trkpt><trkpt lat="51.8256724253" lon="-2.0774775837"><ele>278.44</ele><time>2015-04-29T10:47:19Z</time></trkpt><trkpt lat="51.8256431725" lon="-2.0774617419"><ele>278.44</ele><time>2015-04-29T10:47:22Z</time></trkpt><trkpt lat="51.8255648855" lon="-2.0774101093"><ele>278.44</ele><time>2015-04-29T10:47:31Z</time></trkpt><trkpt lat="51.8255389854" lon="-2.0773844607"><ele>278.44</ele><time>2015-04-29T10:47:34Z</time></trkpt><trkpt lat="51.8254804797" lon="-2.0773481671"><ele>278.44</ele><time>2015-04-29T10:47:40Z</time></trkpt><trkpt lat="51.8253503926" lon="-2.0772594027"><ele>277.48</ele><time>2015-04-29T10:47:54Z</time></trkpt><trkpt lat="51.8252249993" lon="-2.0771955326"><ele>277.96</ele><time>2015-04-29T10:48:07Z</time></trkpt><trkpt lat="51.8250998575" lon="-2.0771319140"><ele>277.96</ele><time>2015-04-29T10:48:20Z</time></trkpt><trkpt lat="51.8249742128" lon="-2.0770760067"><ele>277.96</ele><time>2015-04-29T10:48:34Z</time></trkpt><trkpt lat="51.8248577043" lon="-2.0770177525"><ele>278.44</ele><time>2015-04-29T10:48:46Z</time></trkpt><trkpt lat="51.8247706164" lon="-2.0769859850"><ele>278.44</ele><time>2015-04-29T10:48:56Z</time></trkpt><trkpt lat="51.8246341590" lon="-2.0769677963"><ele>277.96</ele><time>2015-04-29T10:49:10Z</time></trkpt><trkpt lat="51.8245282117" lon="-2.0769586600"><ele>278.92</ele><time>2015-04-29T10:49:22Z</time></trkpt><trkpt lat="51.8244976178" lon="-2.0769591630"><ele>278.44</ele><time>2015-04-29T10:49:25Z</time></trkpt><trkpt lat="51.8243666925" lon="-2.0769268926"><ele>278.44</ele><time>2015-04-29T10:49:39Z</time></trkpt><trkpt lat="51.8242212664" lon="-2.0768711530"><ele>278.44</ele><time>2015-04-29T10:49:53Z</time></trkpt><trkpt lat="51.8241082784" lon="-2.0768056065"><ele>277.00</ele><time>2015-04-29T10:50:05Z</time></trkpt><trkpt lat="51.8240769301" lon="-2.0767911896"><ele>277.00</ele><time>2015-04-29T10:50:09Z</time></trkpt><trkpt lat="51.8239371199" lon="-2.0766710769"><ele>276.52</ele><time>2015-04-29T10:50:25Z</time></trkpt><trkpt lat="51.8239321746" lon="-2.0766800456"><ele>277.48</ele><time>2015-04-29T10:50:43Z</time></trkpt><trkpt lat="51.8239324261" lon="-2.0766766928"><ele>277.48</ele><time>2015-04-29T10:51:09Z</time></trkpt><trkpt lat="51.8239335157" lon="-2.0766704902"><ele>277.48</ele><time>2015-04-29T10:51:34Z</time></trkpt><trkpt lat="51.8239154946" lon="-2.0766697358"><ele>277.00</ele><time>2015-04-29T10:51:42Z</time></trkpt><trkpt lat="51.8238512054" lon="-2.0766319335"><ele>276.52</ele><time>2015-04-29T10:51:54Z</time></trkpt><trkpt lat="51.8237867486" lon="-2.0765896048"><ele>277.00</ele><time>2015-04-29T10:52:09Z</time></trkpt><trkpt lat="51.8237689789" lon="-2.0764952246"><ele>277.00</ele><time>2015-04-29T10:52:23Z</time></trkpt><trkpt lat="51.8237655424" lon="-2.0764679834"><ele>276.52</ele><time>2015-04-29T10:52:25Z</time></trkpt><trkpt lat="51.8237536401" lon="-2.0764160156"><ele>276.52</ele><time>2015-04-29T10:52:28Z</time></trkpt><trkpt lat="51.8237217050" lon="-2.0762801450"><ele>277.48</ele><time>2015-04-29T10:52:43Z</time></trkpt><trkpt lat="51.8237046897" lon="-2.0762275066"><ele>277.48</ele><time>2015-04-29T10:52:58Z</time></trkpt><trkpt lat="51.8236579187" lon="-2.0759623032"><ele>278.44</ele><time>2015-04-29T10:53:16Z</time></trkpt><trkpt lat="51.8236293364" lon="-2.0757846907"><ele>279.40</ele><time>2015-04-29T10:53:28Z</time></trkpt><trkpt lat="51.8235989101" lon="-2.0756551903"><ele>278.92</ele><time>2015-04-29T10:53:37Z</time></trkpt><trkpt lat="51.8235807214" lon="-2.0756312180"><ele>278.92</ele><time>2015-04-29T10:53:39Z</time></trkpt><trkpt lat="51.8235546537" lon="-2.0753960218"><ele>277.96</ele><time>2015-04-29T10:53:54Z</time></trkpt><trkpt lat="51.8235225510" lon="-2.0752096921"><ele>278.44</ele><time>2015-04-29T10:54:07Z</time></trkpt><trkpt lat="51.8234989140" lon="-2.0750462450"><ele>277.96</ele><time>2015-04-29T10:54:22Z</time></trkpt><trkpt lat="51.8234847486" lon="-2.0750030782"><ele>277.96</ele><time>2015-04-29T10:54:37Z</time></trkpt><trkpt lat="51.8234785460" lon="-2.0749888290"><ele>277.96</ele><time>2015-04-29T10:54:51Z</time></trkpt><trkpt lat="51.8234699126" lon="-2.0749750827"><ele>278.44</ele><time>2015-04-29T10:55:09Z</time></trkpt><trkpt lat="51.8234804738" lon="-2.0749469195"><ele>270.27</ele><time>2015-04-29T10:55:17Z</time></trkpt><trkpt lat="51.8234817311" lon="-2.0749464165"><ele>283.25</ele><time>2015-04-29T10:55:18Z</time></trkpt><trkpt lat="51.8234799709" lon="-2.0749589894"><ele>278.44</ele><time>2015-04-29T10:55:19Z</time></trkpt><trkpt lat="51.8234418333" lon="-2.0749848057"><ele>277.48</ele><time>2015-04-29T10:55:28Z</time></trkpt><trkpt lat="51.8234000076" lon="-2.0750179142"><ele>277.48</ele><time>2015-04-29T10:55:32Z</time></trkpt><trkpt lat="51.8232656457" lon="-2.0750609133"><ele>276.52</ele><time>2015-04-29T10:55:46Z</time></trkpt><trkpt lat="51.8232617062" lon="-2.0749790221"><ele>277.00</ele><time>2015-04-29T10:55:54Z</time></trkpt><trkpt lat="51.8232554197" lon="-2.0749049261"><ele>277.00</ele><time>2015-04-29T10:55:58Z</time></trkpt><trkpt lat="51.8232368119" lon="-2.0747626852"><ele>276.04</ele><time>2015-04-29T10:56:07Z</time></trkpt><trkpt lat="51.8232168630" lon="-2.0745241363"><ele>276.52</ele><time>2015-04-29T10:56:21Z</time></trkpt><trkpt lat="51.8231969140" lon="-2.0743969828"><ele>275.07</ele><time>2015-04-29T10:56:30Z</time></trkpt><trkpt lat="51.8231923040" lon="-2.0743593480"><ele>275.56</ele><time>2015-04-29T10:56:33Z</time></trkpt><trkpt lat="51.8231762107" lon="-2.0742528141"><ele>275.56</ele><time>2015-04-29T10:56:41Z</time></trkpt><trkpt lat="51.8231661525" lon="-2.0742073841"><ele>275.56</ele><time>2015-04-29T10:56:44Z</time></trkpt><trkpt lat="51.8231239077" lon="-2.0739697572"><ele>274.59</ele><time>2015-04-29T10:56:59Z</time></trkpt><trkpt lat="51.8231209740" lon="-2.0739212260"><ele>274.11</ele><time>2015-04-29T10:57:02Z</time></trkpt><trkpt lat="51.8231083173" lon="-2.0738213137"><ele>274.11</ele><time>2015-04-29T10:57:12Z</time></trkpt><trkpt lat="51.8230916373" lon="-2.0736870356"><ele>273.63</ele><time>2015-04-29T10:57:20Z</time></trkpt><trkpt lat="51.8230571039" lon="-2.0734572876"><ele>272.19</ele><time>2015-04-29T10:57:34Z</time></trkpt><trkpt lat="51.8230375741" lon="-2.0733446348"><ele>272.19</ele><time>2015-04-29T10:57:42Z</time></trkpt><trkpt lat="51.8230282702" lon="-2.0733014680"><ele>272.67</ele><time>2015-04-29T10:57:45Z</time></trkpt><trkpt lat="51.8229939882" lon="-2.0730441436"><ele>271.71</ele><time>2015-04-29T10:58:02Z</time></trkpt><trkpt lat="51.8229565211" lon="-2.0728127193"><ele>271.23</ele><time>2015-04-29T10:58:17Z</time></trkpt><trkpt lat="51.8229287770" lon="-2.0726082847"><ele>271.71</ele><time>2015-04-29T10:58:30Z</time></trkpt><trkpt lat="51.8229082413" lon="-2.0724241342"><ele>269.79</ele><time>2015-04-29T10:58:43Z</time></trkpt><trkpt lat="51.8228794076" lon="-2.0722452644"><ele>269.31</ele><time>2015-04-29T10:58:57Z</time></trkpt><trkpt lat="51.8228695169" lon="-2.0721748564"><ele>269.31</ele><time>2015-04-29T10:59:03Z</time></trkpt><trkpt lat="51.8228576984" lon="-2.0720723458"><ele>269.31</ele><time>2015-04-29T10:59:10Z</time></trkpt><trkpt lat="51.8228325527" lon="-2.0719779655"><ele>268.83</ele><time>2015-04-29T10:59:23Z</time></trkpt><trkpt lat="51.8228045572" lon="-2.0717586111"><ele>267.86</ele><time>2015-04-29T10:59:36Z</time></trkpt><trkpt lat="51.8227880448" lon="-2.0716284402"><ele>266.90</ele><time>2015-04-29T10:59:44Z</time></trkpt><trkpt lat="51.8227708619" lon="-2.0715349820"><ele>266.90</ele><time>2015-04-29T10:59:51Z</time></trkpt><trkpt lat="51.8227510806" lon="-2.0713772345"><ele>266.42</ele><time>2015-04-29T11:00:02Z</time></trkpt><trkpt lat="51.8227309640" lon="-2.0712298807"><ele>265.46</ele><time>2015-04-29T11:00:12Z</time></trkpt><trkpt lat="51.8227241747" lon="-2.0711276215"><ele>264.50</ele><time>2015-04-29T11:00:19Z</time></trkpt><trkpt lat="51.8227152061" lon="-2.0709286351"><ele>264.50</ele><time>2015-04-29T11:00:35Z</time></trkpt><trkpt lat="51.8226775713" lon="-2.0707586501"><ele>264.02</ele><time>2015-04-29T11:00:48Z</time></trkpt><trkpt lat="51.8226561975" lon="-2.0706194267"><ele>262.10</ele><time>2015-04-29T11:01:01Z</time></trkpt><trkpt lat="51.8226554431" lon="-2.0703968871"><ele>260.65</ele><time>2015-04-29T11:01:16Z</time></trkpt><trkpt lat="51.8226247653" lon="-2.0702083781"><ele>260.17</ele><time>2015-04-29T11:01:29Z</time></trkpt><trkpt lat="51.8226083368" lon="-2.0700144209"><ele>258.73</ele><time>2015-04-29T11:01:45Z</time></trkpt><trkpt lat="51.8225855380" lon="-2.0698978286"><ele>258.25</ele><time>2015-04-29T11:02:00Z</time></trkpt><trkpt lat="51.8225868791" lon="-2.0698139258"><ele>258.73</ele><time>2015-04-29T11:02:12Z</time></trkpt><trkpt lat="51.8225856218" lon="-2.0697465353"><ele>258.73</ele><time>2015-04-29T11:02:26Z</time></trkpt><trkpt lat="51.8224964384" lon="-2.0696027018"><ele>257.29</ele><time>2015-04-29T11:02:44Z</time></trkpt><trkpt lat="51.8224645872" lon="-2.0695006102"><ele>257.77</ele><time>2015-04-29T11:02:55Z</time></trkpt><trkpt lat="51.8224562891" lon="-2.0694527496"><ele>256.81</ele><time>2015-04-29T11:03:18Z</time></trkpt><trkpt lat="51.8224490806" lon="-2.0693301223"><ele>256.33</ele><time>2015-04-29T11:03:26Z</time></trkpt><trkpt lat="51.8224799260" lon="-2.0691163838"><ele>254.89</ele><time>2015-04-29T11:03:42Z</time></trkpt><trkpt lat="51.8225212488" lon="-2.0689489972"><ele>252.96</ele><time>2015-04-29T11:03:56Z</time></trkpt><trkpt lat="51.8225392699" lon="-2.0686891582"><ele>251.04</ele><time>2015-04-29T11:04:11Z</time></trkpt><trkpt lat="51.8225399405" lon="-2.0685091987"><ele>249.60</ele><time>2015-04-29T11:04:23Z</time></trkpt><trkpt lat="51.8225587159" lon="-2.0683211088"><ele>247.68</ele><time>2015-04-29T11:04:36Z</time></trkpt><trkpt lat="51.8225998711" lon="-2.0680788718"><ele>246.72</ele><time>2015-04-29T11:04:52Z</time></trkpt><trkpt lat="51.8226432055" lon="-2.0679487009"><ele>244.31</ele><time>2015-04-29T11:05:05Z</time></trkpt><trkpt lat="51.8226739671" lon="-2.0677701663"><ele>241.91</ele><time>2015-04-29T11:05:21Z</time></trkpt><trkpt lat="51.8227318861" lon="-2.0676819887"><ele>240.47</ele><time>2015-04-29T11:05:35Z</time></trkpt><trkpt lat="51.8227685150" lon="-2.0675911289"><ele>238.54</ele><time>2015-04-29T11:05:51Z</time></trkpt><trkpt lat="51.8227815069" lon="-2.0675103273"><ele>236.62</ele><time>2015-04-29T11:06:05Z</time></trkpt><trkpt lat="51.8228478078" lon="-2.0673352294"><ele>234.22</ele><time>2015-04-29T11:06:23Z</time></trkpt><trkpt lat="51.8228674214" lon="-2.0671045594"><ele>232.78</ele><time>2015-04-29T11:06:37Z</time></trkpt><trkpt lat="51.8228616379" lon="-2.0668476541"><ele>233.26</ele><time>2015-04-29T11:06:51Z</time></trkpt><trkpt lat="51.8228619732" lon="-2.0666061714"><ele>232.78</ele><time>2015-04-29T11:07:06Z</time></trkpt><trkpt lat="51.8228274398" lon="-2.0664243679"><ele>230.85</ele><time>2015-04-29T11:07:22Z</time></trkpt><trkpt lat="51.8228133582" lon="-2.0663243718"><ele>229.89</ele><time>2015-04-29T11:07:36Z</time></trkpt><trkpt lat="51.8228126038" lon="-2.0662327576"><ele>227.97</ele><time>2015-04-29T11:07:51Z</time></trkpt><trkpt lat="51.8228218239" lon="-2.0661107171"><ele>226.53</ele><time>2015-04-29T11:08:07Z</time></trkpt><trkpt lat="51.8228198122" lon="-2.0660338551"><ele>223.64</ele><time>2015-04-29T11:08:21Z</time></trkpt><trkpt lat="51.8228085805" lon="-2.0659424923"><ele>224.12</ele><time>2015-04-29T11:08:34Z</time></trkpt><trkpt lat="51.8228059821" lon="-2.0659124013"><ele>222.68</ele><time>2015-04-29T11:08:40Z</time></trkpt><trkpt lat="51.8228018750" lon="-2.0658274926"><ele>222.68</ele><time>2015-04-29T11:08:51Z</time></trkpt><trkpt lat="51.8228123523" lon="-2.0656313561"><ele>222.20</ele><time>2015-04-29T11:09:08Z</time></trkpt><trkpt lat="51.8228282779" lon="-2.0655332040"><ele>221.24</ele><time>2015-04-29T11:09:21Z</time></trkpt><trkpt lat="51.8228660803" lon="-2.0653164480"><ele>219.32</ele><time>2015-04-29T11:09:33Z</time></trkpt><trkpt lat="51.8228662480" lon="-2.0649592951"><ele>218.84</ele><time>2015-04-29T11:09:44Z</time></trkpt><trkpt lat="51.8228887953" lon="-2.0647098497"><ele>217.40</ele><time>2015-04-29T11:09:54Z</time></trkpt><trkpt lat="51.8228917290" lon="-2.0646927506"><ele>217.40</ele><time>2015-04-29T11:09:55Z</time></trkpt><trkpt lat="51.8228753842" lon="-2.0644496754"><ele>216.91</ele><time>2015-04-29T11:10:08Z</time></trkpt><trkpt lat="51.8228741270" lon="-2.0642886590"><ele>216.43</ele><time>2015-04-29T11:10:19Z</time></trkpt><trkpt lat="51.8228898011" lon="-2.0641426463"><ele>214.99</ele><time>2015-04-29T11:10:32Z</time></trkpt><trkpt lat="51.8228689302" lon="-2.0639251359"><ele>214.51</ele><time>2015-04-29T11:10:43Z</time></trkpt><trkpt lat="51.8228528369" lon="-2.0637135766"><ele>213.07</ele><time>2015-04-29T11:10:56Z</time></trkpt><trkpt lat="51.8228578661" lon="-2.0636590943"><ele>213.07</ele><time>2015-04-29T11:10:59Z</time></trkpt><trkpt lat="51.8228471372" lon="-2.0635241456"><ele>212.11</ele><time>2015-04-29T11:11:07Z</time></trkpt><trkpt lat="51.8228501547" lon="-2.0633531548"><ele>212.11</ele><time>2015-04-29T11:11:19Z</time></trkpt><trkpt lat="51.8228668347" lon="-2.0631772187"><ele>210.67</ele><time>2015-04-29T11:11:31Z</time></trkpt><trkpt lat="51.8228764739" lon="-2.0629706886"><ele>210.19</ele><time>2015-04-29T11:11:42Z</time></trkpt><trkpt lat="51.8228778988" lon="-2.0627924893"><ele>209.70</ele><time>2015-04-29T11:11:56Z</time></trkpt><trkpt lat="51.8229023740" lon="-2.0628092531"><ele>209.22</ele><time>2015-04-29T11:12:15Z</time></trkpt><trkpt lat="51.8229073193" lon="-2.0627009589"><ele>209.22</ele><time>2015-04-29T11:12:28Z</time></trkpt><trkpt lat="51.8229053915" lon="-2.0625474025"><ele>208.26</ele><time>2015-04-29T11:12:41Z</time></trkpt><trkpt lat="51.8229346443" lon="-2.0624317322"><ele>207.30</ele><time>2015-04-29T11:12:54Z</time></trkpt><trkpt lat="51.8229561858" lon="-2.0621914230"><ele>206.34</ele><time>2015-04-29T11:13:09Z</time></trkpt><trkpt lat="51.8229465466" lon="-2.0621805266"><ele>206.82</ele><time>2015-04-29T11:13:17Z</time></trkpt><trkpt lat="51.8230013642" lon="-2.0620072726"><ele>205.86</ele><time>2015-04-29T11:13:26Z</time></trkpt><trkpt lat="51.8230250850" lon="-2.0619636029"><ele>205.86</ele><time>2015-04-29T11:13:29Z</time></trkpt><trkpt lat="51.8230675813" lon="-2.0617711544"><ele>205.38</ele><time>2015-04-29T11:13:41Z</time></trkpt><trkpt lat="51.8231265899" lon="-2.0615614392"><ele>204.42</ele><time>2015-04-29T11:13:54Z</time></trkpt><trkpt lat="51.8232166115" lon="-2.0613306854"><ele>203.46</ele><time>2015-04-29T11:14:09Z</time></trkpt><trkpt lat="51.8232177012" lon="-2.0613131672"><ele>202.98</ele><time>2015-04-29T11:14:11Z</time></trkpt><trkpt lat="51.8232343812" lon="-2.0612691622"><ele>203.46</ele><time>2015-04-29T11:14:14Z</time></trkpt><trkpt lat="51.8232945632" lon="-2.0610716008"><ele>203.46</ele><time>2015-04-29T11:14:27Z</time></trkpt><trkpt lat="51.8233534880" lon="-2.0608961675"><ele>202.49</ele><time>2015-04-29T11:14:40Z</time></trkpt><trkpt lat="51.8233942240" lon="-2.0606744662"><ele>202.01</ele><time>2015-04-29T11:14:55Z</time></trkpt><trkpt lat="51.8234765343" lon="-2.0604458917"><ele>201.05</ele><time>2015-04-29T11:15:08Z</time></trkpt><trkpt lat="51.8234840780" lon="-2.0604256075"><ele>201.05</ele><time>2015-04-29T11:15:09Z</time></trkpt><trkpt lat="51.8234999198" lon="-2.0602060016"><ele>200.09</ele><time>2015-04-29T11:15:21Z</time></trkpt><trkpt lat="51.8235108163" lon="-2.0601381920"><ele>199.13</ele><time>2015-04-29T11:15:31Z</time></trkpt><trkpt lat="51.8235095590" lon="-2.0600606594"><ele>199.13</ele><time>2015-04-29T11:15:36Z</time></trkpt><trkpt lat="51.8235268258" lon="-2.0599544607"><ele>198.65</ele><time>2015-04-29T11:15:49Z</time></trkpt><trkpt lat="51.8235360458" lon="-2.0598805323"><ele>198.65</ele><time>2015-04-29T11:15:57Z</time></trkpt><trkpt lat="51.8235407397" lon="-2.0596216992"><ele>198.17</ele><time>2015-04-29T11:16:09Z</time></trkpt><trkpt lat="51.8235892709" lon="-2.0593391452"><ele>197.21</ele><time>2015-04-29T11:16:24Z</time></trkpt><trkpt lat="51.8236079626" lon="-2.0592354611"><ele>196.73</ele><time>2015-04-29T11:16:30Z</time></trkpt><trkpt lat="51.8236154225" lon="-2.0591834094"><ele>196.73</ele><time>2015-04-29T11:16:32Z</time></trkpt><trkpt lat="51.8236558232" lon="-2.0589520689"><ele>196.25</ele><time>2015-04-29T11:16:44Z</time></trkpt><trkpt lat="51.8236947991" lon="-2.0587729476"><ele>196.73</ele><time>2015-04-29T11:16:56Z</time></trkpt><trkpt lat="51.8237311766" lon="-2.0585955866"><ele>194.80</ele><time>2015-04-29T11:17:09Z</time></trkpt><trkpt lat="51.8237471860" lon="-2.0584988594"><ele>193.84</ele><time>2015-04-29T11:17:15Z</time></trkpt><trkpt lat="51.8237961363" lon="-2.0582120307"><ele>192.88</ele><time>2015-04-29T11:17:33Z</time></trkpt><trkpt lat="51.8238735013" lon="-2.0581056643"><ele>192.88</ele><time>2015-04-29T11:17:48Z</time></trkpt><trkpt lat="51.8238719087" lon="-2.0580244437"><ele>192.88</ele><time>2015-04-29T11:17:53Z</time></trkpt><trkpt lat="51.8238566536" lon="-2.0577781834"><ele>192.40</ele><time>2015-04-29T11:18:08Z</time></trkpt><trkpt lat="51.8238545582" lon="-2.0576648600"><ele>192.88</ele><time>2015-04-29T11:18:21Z</time></trkpt><trkpt lat="51.8239117227" lon="-2.0575290732"><ele>192.40</ele><time>2015-04-29T11:18:32Z</time></trkpt><trkpt lat="51.8239526264" lon="-2.0573649555"><ele>190.96</ele><time>2015-04-29T11:18:46Z</time></trkpt><trkpt lat="51.8239320908" lon="-2.0571994968"><ele>191.92</ele><time>2015-04-29T11:19:00Z</time></trkpt><trkpt lat="51.8239008263" lon="-2.0570445154"><ele>191.44</ele><time>2015-04-29T11:19:15Z</time></trkpt><trkpt lat="51.8238287419" lon="-2.0569777954"><ele>191.44</ele><time>2015-04-29T11:19:30Z</time></trkpt><trkpt lat="51.8237955496" lon="-2.0569018554"><ele>191.44</ele><time>2015-04-29T11:19:43Z</time></trkpt><trkpt lat="51.8237836473" lon="-2.0568391588"><ele>191.44</ele><time>2015-04-29T11:19:59Z</time></trkpt><trkpt lat="51.8237326853" lon="-2.0567343850"><ele>190.96</ele><time>2015-04-29T11:20:15Z</time></trkpt><trkpt lat="51.8236700725" lon="-2.0565842651"><ele>190.48</ele><time>2015-04-29T11:20:25Z</time></trkpt><trkpt lat="51.8236528896" lon="-2.0565246698"><ele>190.96</ele><time>2015-04-29T11:20:28Z</time></trkpt><trkpt lat="51.8236537278" lon="-2.0564302895"><ele>189.04</ele><time>2015-04-29T11:20:38Z</time></trkpt><trkpt lat="51.8236952182" lon="-2.0561054070"><ele>189.04</ele><time>2015-04-29T11:20:51Z</time></trkpt><trkpt lat="51.8237311766" lon="-2.0560330711"><ele>188.56</ele><time>2015-04-29T11:21:06Z</time></trkpt><trkpt lat="51.8237491138" lon="-2.0558930933"><ele>188.56</ele><time>2015-04-29T11:21:23Z</time></trkpt><trkpt lat="51.8237483595" lon="-2.0557159837"><ele>188.56</ele><time>2015-04-29T11:21:35Z</time></trkpt><trkpt lat="51.8237484433" lon="-2.0555722341"><ele>191.44</ele><time>2015-04-29T11:21:48Z</time></trkpt><trkpt lat="51.8237642851" lon="-2.0553705655"><ele>192.40</ele><time>2015-04-29T11:22:02Z</time></trkpt><trkpt lat="51.8237332720" lon="-2.0551566593"><ele>192.40</ele><time>2015-04-29T11:22:16Z</time></trkpt><trkpt lat="51.8237602618" lon="-2.0550180227"><ele>192.88</ele><time>2015-04-29T11:22:30Z</time></trkpt><trkpt lat="51.8237755168" lon="-2.0547910407"><ele>192.40</ele><time>2015-04-29T11:22:43Z</time></trkpt><trkpt lat="51.8237993214" lon="-2.0545963291"><ele>192.40</ele><time>2015-04-29T11:22:57Z</time></trkpt><trkpt lat="51.8238299992" lon="-2.0544488914"><ele>190.96</ele><time>2015-04-29T11:23:11Z</time></trkpt><trkpt lat="51.8238317594" lon="-2.0543434471"><ele>191.44</ele><time>2015-04-29T11:23:24Z</time></trkpt><trkpt lat="51.8238491938" lon="-2.0541705284"><ele>191.92</ele><time>2015-04-29T11:23:40Z</time></trkpt><trkpt lat="51.8238568213" lon="-2.0541045628"><ele>190.48</ele><time>2015-04-29T11:23:54Z</time></trkpt><trkpt lat="51.8238851521" lon="-2.0540075842"><ele>190.48</ele><time>2015-04-29T11:24:07Z</time></trkpt><trkpt lat="51.8239035085" lon="-2.0539375115"><ele>190.48</ele><time>2015-04-29T11:24:20Z</time></trkpt><trkpt lat="51.8239286542" lon="-2.0537241083"><ele>190.48</ele><time>2015-04-29T11:24:36Z</time></trkpt><trkpt lat="51.8239209428" lon="-2.0534554683"><ele>189.04</ele><time>2015-04-29T11:24:50Z</time></trkpt><trkpt lat="51.8239672109" lon="-2.0529642049"><ele>189.52</ele><time>2015-04-29T11:25:05Z</time></trkpt><trkpt lat="51.8240025826" lon="-2.0528090559"><ele>188.56</ele><time>2015-04-29T11:25:20Z</time></trkpt><trkpt lat="51.8240400497" lon="-2.0526356343"><ele>187.59</ele><time>2015-04-29T11:25:32Z</time></trkpt><trkpt lat="51.8240905926" lon="-2.0524087362"><ele>187.11</ele><time>2015-04-29T11:25:46Z</time></trkpt><trkpt lat="51.8241293170" lon="-2.0522519108"><ele>186.15</ele><time>2015-04-29T11:25:56Z</time></trkpt><trkpt lat="51.8241632637" lon="-2.0520702749"><ele>186.15</ele><time>2015-04-29T11:26:08Z</time></trkpt><trkpt lat="51.8242278881" lon="-2.0518520102"><ele>185.67</ele><time>2015-04-29T11:26:21Z</time></trkpt><trkpt lat="51.8242811132" lon="-2.0516585559"><ele>184.71</ele><time>2015-04-29T11:26:33Z</time></trkpt><trkpt lat="51.8243099470" lon="-2.0515362639"><ele>184.71</ele><time>2015-04-29T11:26:47Z</time></trkpt><trkpt lat="51.8243460730" lon="-2.0514333341"><ele>184.23</ele><time>2015-04-29T11:27:05Z</time></trkpt><trkpt lat="51.8243565504" lon="-2.0512294862"><ele>183.75</ele><time>2015-04-29T11:27:20Z</time></trkpt><trkpt lat="51.8243711349" lon="-2.0511686336"><ele>183.75</ele><time>2015-04-29T11:27:37Z</time></trkpt><trkpt lat="51.8243961968" lon="-2.0510671288"><ele>183.27</ele><time>2015-04-29T11:27:46Z</time></trkpt><trkpt lat="51.8244080991" lon="-2.0509994030"><ele>182.79</ele><time>2015-04-29T11:27:51Z</time></trkpt><trkpt lat="51.8245117832" lon="-2.0507058688"><ele>182.31</ele><time>2015-04-29T11:28:07Z</time></trkpt><trkpt lat="51.8245435506" lon="-2.0504835807"><ele>181.35</ele><time>2015-04-29T11:28:24Z</time></trkpt><trkpt lat="51.8245675229" lon="-2.0504443534"><ele>180.87</ele><time>2015-04-29T11:28:42Z</time></trkpt><trkpt lat="51.8245925009" lon="-2.0504288469"><ele>181.35</ele><time>2015-04-29T11:29:06Z</time></trkpt><trkpt lat="51.8246053252" lon="-2.0504053775"><ele>181.35</ele><time>2015-04-29T11:29:35Z</time></trkpt><trkpt lat="51.8246036489" lon="-2.0504031982"><ele>180.87</ele><time>2015-04-29T11:29:59Z</time></trkpt><trkpt lat="51.8246058282" lon="-2.0504073054"><ele>181.35</ele><time>2015-04-29T11:30:24Z</time></trkpt><trkpt lat="51.8246370926" lon="-2.0503655635"><ele>180.87</ele><time>2015-04-29T11:30:47Z</time></trkpt><trkpt lat="51.8247010466" lon="-2.0502380747"><ele>180.87</ele><time>2015-04-29T11:31:01Z</time></trkpt><trkpt lat="51.8247484043" lon="-2.0500700176"><ele>181.83</ele><time>2015-04-29T11:31:13Z</time></trkpt><trkpt lat="51.8248167168" lon="-2.0499289501"><ele>183.27</ele><time>2015-04-29T11:31:25Z</time></trkpt><trkpt lat="51.8248786591" lon="-2.0498302113"><ele>184.71</ele><time>2015-04-29T11:31:37Z</time></trkpt><trkpt lat="51.8249546830" lon="-2.0496546105"><ele>185.19</ele><time>2015-04-29T11:31:52Z</time></trkpt><trkpt lat="51.8250350654" lon="-2.0494265389"><ele>185.19</ele><time>2015-04-29T11:32:09Z</time></trkpt><trkpt lat="51.8251192197" lon="-2.0492770057"><ele>184.71</ele><time>2015-04-29T11:32:22Z</time></trkpt><trkpt lat="51.8251318764" lon="-2.0492252894"><ele>185.19</ele><time>2015-04-29T11:32:27Z</time></trkpt><trkpt lat="51.8251967523" lon="-2.0490930229"><ele>185.67</ele><time>2015-04-29T11:32:37Z</time></trkpt><trkpt lat="51.8252216466" lon="-2.0490150712"><ele>188.56</ele><time>2015-04-29T11:32:42Z</time></trkpt><trkpt lat="51.8252477981" lon="-2.0489663724"><ele>185.19</ele><time>2015-04-29T11:32:45Z</time></trkpt><trkpt lat="51.8253190443" lon="-2.0488729142"><ele>184.71</ele><time>2015-04-29T11:32:55Z</time></trkpt><trkpt lat="51.8253806513" lon="-2.0486907754"><ele>184.23</ele><time>2015-04-29T11:33:08Z</time></trkpt><trkpt lat="51.8253977504" lon="-2.0486593433"><ele>184.71</ele><time>2015-04-29T11:33:10Z</time></trkpt><trkpt lat="51.8254453596" lon="-2.0485670585"><ele>185.19</ele><time>2015-04-29T11:33:16Z</time></trkpt><trkpt lat="51.8254629616" lon="-2.0485300943"><ele>184.71</ele><time>2015-04-29T11:33:18Z</time></trkpt><trkpt lat="51.8255321123" lon="-2.0483254083"><ele>184.71</ele><time>2015-04-29T11:33:31Z</time></trkpt><trkpt lat="51.8255949765" lon="-2.0481376536"><ele>185.19</ele><time>2015-04-29T11:33:44Z</time></trkpt><trkpt lat="51.8256691564" lon="-2.0479702670"><ele>186.63</ele><time>2015-04-29T11:33:58Z</time></trkpt><trkpt lat="51.8257510476" lon="-2.0478089992"><ele>185.67</ele><time>2015-04-29T11:34:13Z</time></trkpt><trkpt lat="51.8258244731" lon="-2.0477892179"><ele>184.23</ele><time>2015-04-29T11:34:24Z</time></trkpt><trkpt lat="51.8258914445" lon="-2.0477156248"><ele>184.23</ele><time>2015-04-29T11:34:31Z</time></trkpt><trkpt lat="51.8259450048" lon="-2.0476746373"><ele>183.75</ele><time>2015-04-29T11:34:36Z</time></trkpt><trkpt lat="51.8260983936" lon="-2.0475973561"><ele>181.83</ele><time>2015-04-29T11:34:51Z</time></trkpt><trkpt lat="51.8262202665" lon="-2.0474810153"><ele>181.35</ele><time>2015-04-29T11:35:07Z</time></trkpt><trkpt lat="51.8262335099" lon="-2.0473494194"><ele>181.83</ele><time>2015-04-29T11:35:17Z</time></trkpt><trkpt lat="51.8262213562" lon="-2.0473060850"><ele>181.35</ele><time>2015-04-29T11:35:29Z</time></trkpt><trkpt lat="51.8262359407" lon="-2.0472852141"><ele>182.31</ele><time>2015-04-29T11:35:45Z</time></trkpt><trkpt lat="51.8262403831" lon="-2.0472886506"><ele>180.87</ele><time>2015-04-29T11:36:00Z</time></trkpt><trkpt lat="51.8262389582" lon="-2.0472877286"><ele>181.35</ele><time>2015-04-29T11:36:10Z</time></trkpt></trkseg></trk></gpx>